createdAt,value
2022-11-22T00:00:21.919Z,74.65
2022-11-22T00:04:04.770Z,74.75
2022-11-22T00:07:47.793Z,74.45
2022-11-22T00:11:31.858Z,74.65
2022-11-22T00:15:14.573Z,74.68
2022-11-22T00:18:57.261Z,74.77
2022-11-22T00:22:44.530Z,75.55
2022-11-22T00:26:28.012Z,75.53
2022-11-22T00:30:12.512Z,75.33
2022-11-22T00:33:55.243Z,75.22
2022-11-22T00:37:37.941Z,75.11
2022-11-22T00:41:20.663Z,75.03
2022-11-22T00:45:03.357Z,74.93
2022-11-22T00:48:47.378Z,74.88
2022-11-22T00:52:30.019Z,74.50
2022-11-22T00:56:12.681Z,74.08
2022-11-22T00:59:55.492Z,75.41
2022-11-22T01:03:38.162Z,75.44
2022-11-22T01:07:22.285Z,75.92
2022-11-22T01:11:05.086Z,75.50
2022-11-22T01:14:47.843Z,74.99
2022-11-22T01:18:30.796Z,74.48
2022-11-22T01:22:13.492Z,74.35
2022-11-22T01:25:57.607Z,73.10
2022-11-22T01:29:40.295Z,73.61
2022-11-22T01:33:23.155Z,73.40
2022-11-22T01:37:06.221Z,73.68
2022-11-22T01:40:48.907Z,73.99
2022-11-22T01:44:33.727Z,74.94
2022-11-22T01:48:23.273Z,75.53
2022-11-22T01:52:08.811Z,76.61
2022-11-22T01:55:52.698Z,76.73
2022-11-22T01:59:38.852Z,76.37
2022-11-22T02:03:22.179Z,76.21
2022-11-22T02:07:08.046Z,76.09
2022-11-22T02:10:53.614Z,76.57
2022-11-22T02:14:38.062Z,76.96
2022-11-22T02:18:20.773Z,78.15
2022-11-22T02:22:08.382Z,78.63
2022-11-22T02:25:55.172Z,78.91
2022-11-22T02:29:38.216Z,79.25
2022-11-22T02:33:21.013Z,79.40
2022-11-22T02:37:03.824Z,79.31
2022-11-22T02:40:50.114Z,78.69
2022-11-22T02:44:34.840Z,79.28
2022-11-22T02:48:19.104Z,79.50
2022-11-22T02:52:01.818Z,79.96
2022-11-22T02:55:44.503Z,80.01
2022-11-22T02:59:27.609Z,80.61
2022-11-22T03:03:12.031Z,80.69
2022-11-22T03:06:55.968Z,80.29
2022-11-22T03:10:38.584Z,80.99
2022-11-22T03:14:21.674Z,79.92
2022-11-22T03:18:05.104Z,79.96
2022-11-22T03:21:52.105Z,79.48
2022-11-22T03:25:37.866Z,79.22
2022-11-22T03:29:20.581Z,79.29
2022-11-22T03:33:03.273Z,78.59
2022-11-22T03:36:45.971Z,78.67
2022-11-22T03:40:30.107Z,79.04
2022-11-22T03:44:12.754Z,80.14
2022-11-22T03:47:56.791Z,80.60
2022-11-22T03:51:39.439Z,81.89
2022-11-22T03:55:22.114Z,82.29
2022-11-22T03:59:06.141Z,83.16
2022-11-22T04:02:48.788Z,84.42
2022-11-22T04:06:31.514Z,85.43
2022-11-22T04:10:17.793Z,87.01
2022-11-22T04:14:21.551Z,88.67
2022-11-22T04:18:05.664Z,89.46
2022-11-22T04:21:48.263Z,90.47
2022-11-22T04:25:32.752Z,91.38
2022-11-22T04:29:15.469Z,92.43
2022-11-22T04:32:58.052Z,91.56
2022-11-22T04:36:42.070Z,92.29
2022-11-22T04:40:24.695Z,91.07
2022-11-22T04:44:24.680Z,91.80
2022-11-22T04:48:07.419Z,92.37
2022-11-22T04:52:09.166Z,91.59
2022-11-22T04:55:51.996Z,91.54
2022-11-22T04:59:34.651Z,91.34
2022-11-22T05:03:17.642Z,91.81
2022-11-22T05:07:01.709Z,92.01
2022-11-22T05:10:59.979Z,92.60
2022-11-22T05:14:42.603Z,93.46
2022-11-22T05:18:26.290Z,93.52
2022-11-22T05:22:10.266Z,93.17
2022-11-22T05:25:53.301Z,93.52
2022-11-22T05:29:35.935Z,94.17
2022-11-22T05:33:18.560Z,93.89
2022-11-22T05:37:02.630Z,95.02
2022-11-22T05:40:46.809Z,95.73
2022-11-22T05:44:29.457Z,96.42
2022-11-22T05:48:12.029Z,96.61
2022-11-22T05:51:54.662Z,97.57
2022-11-22T05:55:37.335Z,97.47
2022-11-22T05:59:21.316Z,97.88
2022-11-22T06:03:04.820Z,98.85
2022-11-22T06:06:47.752Z,99.22
2022-11-22T06:10:30.393Z,99.51
2022-11-22T06:14:13.049Z,99.01
2022-11-22T06:17:57.019Z,99.18
2022-11-22T06:21:39.831Z,99.11
2022-11-22T06:25:22.528Z,99.92
2022-11-22T06:29:05.341Z,99.52
2022-11-22T06:32:47.947Z,100.00
2022-11-22T06:36:34.076Z,100.00
2022-11-22T06:40:18.913Z,99.67
2022-11-22T06:44:05.516Z,99.92
2022-11-22T06:47:48.111Z,100.00
2022-11-22T06:51:33.349Z,99.55
2022-11-22T06:55:42.361Z,98.70
2022-11-22T06:59:18.941Z,98.40
2022-11-22T07:03:01.669Z,98.30
2022-11-22T07:06:45.734Z,97.59
2022-11-22T07:10:28.384Z,97.58
2022-11-22T07:14:11.044Z,97.49
2022-11-22T07:17:53.627Z,99.88
2022-11-22T07:21:37.625Z,98.86
2022-11-22T07:25:21.920Z,98.17
2022-11-22T07:29:05.039Z,95.90
2022-11-22T07:32:47.946Z,95.75
2022-11-22T07:36:30.566Z,96.04
2022-11-22T07:40:13.701Z,94.89
2022-11-22T07:43:57.684Z,95.16
2022-11-22T07:47:40.287Z,96.55
2022-11-22T07:51:25.376Z,98.37
2022-11-22T07:55:13.931Z,98.79
2022-11-22T07:58:58.336Z,99.48
2022-11-22T08:02:40.955Z,99.94
2022-11-22T08:06:23.662Z,99.80
2022-11-22T08:10:07.345Z,100.00
2022-11-22T08:13:49.996Z,100.00
2022-11-22T08:17:33.963Z,98.82
2022-11-22T08:21:17.727Z,97.11
2022-11-22T08:25:00.392Z,97.70
2022-11-22T08:28:43.951Z,97.46
2022-11-22T08:32:26.819Z,96.86
2022-11-22T08:36:11.022Z,93.57
2022-11-22T08:39:53.682Z,92.68
2022-11-22T08:43:36.379Z,92.70
2022-11-22T08:47:19.137Z,93.82
2022-11-22T08:51:04.429Z,94.65
2022-11-22T08:54:48.408Z,96.34
2022-11-22T08:58:31.653Z,94.12
2022-11-22T09:02:14.347Z,92.47
2022-11-22T09:10:08.107Z,95.25
2022-11-22T09:13:51.013Z,94.49
2022-11-22T09:17:33.916Z,95.63
2022-11-22T09:21:18.166Z,96.28
2022-11-22T09:25:00.893Z,95.12
2022-11-22T09:28:45.430Z,95.46
2022-11-22T09:32:33.379Z,96.05
2022-11-22T09:36:18.055Z,94.15
2022-11-22T09:40:00.726Z,95.63
2022-11-22T09:43:51.242Z,94.03
2022-11-22T09:47:39.990Z,89.00
2022-11-22T09:51:25.176Z,91.02
2022-11-22T09:55:12.583Z,90.34
2022-11-22T09:58:59.752Z,88.90
2022-11-22T10:03:00.014Z,87.85
2022-11-22T10:06:47.117Z,85.02
2022-11-22T10:10:34.022Z,86.41
2022-11-22T10:14:26.978Z,86.55
2022-11-22T10:18:12.798Z,83.93
2022-11-22T10:21:55.465Z,84.66
2022-11-22T10:25:40.675Z,85.39
2022-11-22T10:29:33.113Z,86.52
2022-11-22T10:33:19.987Z,86.78
2022-11-22T10:37:06.473Z,87.33
2022-11-22T10:40:55.695Z,86.97
2022-11-22T10:44:49.039Z,86.06
2022-11-22T10:48:37.099Z,86.41
2022-11-22T10:52:24.681Z,87.41
2022-11-22T10:56:10.993Z,86.82
2022-11-22T11:00:06.738Z,85.90
2022-11-22T11:03:50.254Z,85.51
2022-11-22T11:07:33.138Z,84.41
2022-11-22T11:11:17.858Z,82.38
2022-11-22T11:15:06.809Z,81.97
2022-11-22T11:18:53.492Z,82.74
2022-11-22T11:26:38.815Z,83.98
2022-11-22T11:30:22.931Z,83.78
2022-11-22T11:34:16.793Z,82.62
2022-11-22T11:37:59.420Z,84.14
2022-11-22T11:41:43.555Z,81.31
2022-11-22T11:45:31.012Z,80.59
2022-11-22T11:49:15.833Z,81.80
2022-11-22T11:53:05.056Z,82.39
2022-11-22T11:56:49.217Z,83.37
2022-11-22T12:00:40.326Z,84.92
2022-11-22T12:04:25.629Z,85.66
2022-11-22T12:08:29.502Z,86.86
2022-11-22T12:12:32.981Z,85.67
2022-11-22T12:16:20.384Z,84.39
2022-11-22T12:20:06.951Z,83.25
2022-11-22T12:23:53.197Z,84.24
2022-11-22T12:27:35.872Z,84.43
2022-11-22T12:31:27.006Z,84.63
2022-11-22T12:35:13.022Z,84.12
2022-11-22T12:38:56.537Z,85.25
2022-11-22T12:42:42.710Z,86.03
2022-11-22T12:46:30.271Z,87.06
2022-11-22T12:50:18.623Z,87.48
2022-11-22T12:54:03.985Z,87.69
2022-11-22T12:57:51.744Z,88.45
2022-11-22T13:01:40.866Z,88.14
2022-11-22T13:05:25.584Z,87.16
2022-11-22T13:09:11.711Z,86.53
2022-11-22T13:12:55.406Z,85.38
2022-11-22T13:16:39.400Z,84.84
2022-11-22T13:20:23.614Z,84.98
2022-11-22T13:24:22.645Z,85.35
2022-11-22T13:28:11.637Z,84.20
2022-11-22T13:32:17.556Z,85.06
2022-11-22T13:36:25.497Z,84.43
2022-11-22T13:40:19.930Z,83.71
2022-11-22T13:44:18.375Z,84.04
2022-11-22T13:48:02.444Z,83.57
2022-11-22T13:51:56.116Z,84.40
2022-11-22T13:55:42.348Z,83.89
2022-11-22T13:59:25.444Z,84.20
2022-11-22T14:03:38.222Z,83.69
2022-11-22T14:07:29.207Z,85.13
2022-11-22T14:11:26.094Z,85.54
2022-11-22T14:15:28.233Z,85.46
2022-11-22T14:19:24.378Z,84.96
2022-11-22T14:23:16.514Z,84.94
2022-11-22T14:27:04.018Z,85.32
2022-11-22T14:30:49.989Z,100.00
2022-11-22T14:34:34.238Z,82.16
2022-11-22T14:38:32.165Z,79.14
2022-11-22T14:42:56.487Z,79.82
2022-11-22T14:46:53.523Z,80.81
2022-11-22T14:50:43.733Z,81.76
2022-11-22T14:54:29.125Z,82.64
2022-11-22T14:58:14.158Z,83.91
2022-11-22T15:02:26.884Z,84.10
2022-11-22T15:09:23.221Z,84.48
2022-11-22T15:10:46.226Z,86.06
2022-11-22T15:14:51.840Z,86.31
2022-11-22T15:59:31.681Z,86.45
2022-11-22T16:03:23.913Z,86.16
2022-11-22T16:07:07.885Z,86.38
2022-11-22T16:10:52.428Z,86.70
2022-11-22T16:14:46.672Z,85.98
2022-11-22T16:18:29.374Z,85.81
2022-11-22T16:22:31.575Z,85.71
2022-11-22T16:26:20.717Z,85.73
2022-11-22T16:30:03.356Z,86.31
2022-11-22T16:33:46.489Z,86.22
2022-11-22T16:37:36.193Z,85.01
2022-11-22T16:41:22.969Z,84.27
2022-11-22T16:45:06.558Z,84.60
2022-11-22T16:48:49.336Z,84.36
2022-11-22T16:52:31.988Z,83.42
2022-11-22T16:56:19.209Z,84.10
2022-11-22T17:00:07.210Z,83.61
2022-11-22T17:03:52.584Z,83.45
2022-11-22T17:07:35.366Z,83.45
2022-11-22T17:11:19.489Z,83.03
2022-11-22T17:15:02.163Z,83.00
2022-11-22T17:18:46.500Z,83.36
2022-11-22T17:22:29.144Z,83.01
2022-11-22T17:26:11.924Z,82.63
2022-11-22T17:29:54.635Z,82.21
2022-11-22T17:33:37.307Z,82.26
2022-11-22T17:37:21.314Z,81.82
2022-11-22T17:41:03.939Z,81.60
2022-11-22T17:44:46.550Z,80.78
2022-11-22T17:48:29.536Z,80.88
2022-11-22T17:52:12.166Z,83.60
2022-11-22T17:56:10.128Z,84.46
2022-11-22T17:59:53.606Z,81.08
2022-11-22T18:03:36.492Z,80.68
2022-11-22T18:07:19.859Z,79.92
2022-11-22T18:11:04.754Z,79.52
2022-11-22T18:14:48.211Z,79.61
2022-11-22T18:18:55.720Z,79.95
2022-11-22T18:22:33.477Z,80.04
2022-11-22T18:26:38.232Z,80.37
2022-11-22T18:30:20.121Z,80.35
2022-11-22T18:34:02.708Z,80.23
2022-11-22T18:37:45.393Z,79.98
2022-11-22T18:41:29.500Z,80.28
2022-11-22T18:45:12.365Z,80.67
2022-11-22T18:48:55.024Z,80.18
2022-11-22T18:52:38.741Z,79.58
2022-11-22T18:56:21.436Z,79.11
2022-11-22T19:00:06.213Z,78.79
2022-11-22T19:03:49.335Z,78.58
2022-11-22T19:07:32.010Z,78.28
2022-11-22T19:11:15.666Z,77.92
2022-11-22T19:14:58.670Z,78.11
2022-11-22T19:18:43.345Z,77.65
2022-11-22T19:22:30.655Z,77.22
2022-11-22T19:26:14.997Z,77.26
2022-11-22T19:29:57.805Z,77.75
2022-11-22T19:33:42.413Z,78.31
2022-11-22T19:37:25.112Z,78.24
2022-11-22T19:41:09.583Z,78.34
2022-11-22T19:44:52.287Z,78.40
2022-11-22T19:48:36.357Z,79.08
2022-11-22T19:52:20.614Z,79.41
2022-11-22T19:56:05.074Z,79.33
2022-11-22T19:59:47.737Z,79.42
2022-11-22T20:03:30.437Z,79.31
2022-11-22T20:07:13.217Z,79.94
2022-11-22T20:11:02.956Z,79.70
2022-11-22T20:14:45.659Z,79.73
2022-11-22T20:18:28.506Z,80.19
2022-11-22T20:22:11.250Z,80.53
2022-11-22T20:25:53.979Z,80.94
2022-11-22T20:29:37.962Z,81.43
2022-11-22T20:33:20.650Z,82.15
2022-11-22T20:37:03.392Z,82.15
2022-11-22T20:40:45.992Z,82.04
2022-11-22T20:44:29.058Z,82.57
2022-11-22T20:48:15.126Z,82.86
2022-11-22T20:51:58.144Z,82.67
2022-11-22T20:55:41.206Z,82.47
2022-11-22T20:59:23.976Z,82.45
2022-11-22T21:03:08.151Z,82.77
2022-11-22T21:06:52.438Z,82.79
2022-11-22T21:10:35.261Z,84.31
2022-11-22T21:14:17.890Z,82.72
2022-11-22T21:18:23.994Z,81.85
2022-11-22T21:22:08.450Z,81.56
2022-11-22T21:25:51.763Z,82.19
2022-11-22T21:29:34.477Z,81.86
2022-11-22T21:33:17.093Z,82.31
2022-11-22T21:36:59.748Z,82.45
2022-11-22T21:40:50.309Z,81.80
2022-11-22T21:44:33.803Z,82.07
2022-11-22T21:48:16.749Z,82.07
2022-11-22T21:52:00.941Z,81.90
2022-11-22T21:55:50.886Z,81.75
2022-11-22T21:59:33.856Z,81.44
2022-11-22T22:03:17.602Z,81.51
2022-11-22T22:07:00.242Z,81.79
2022-11-22T22:10:42.877Z,82.17
2022-11-22T22:14:27.198Z,82.89
2022-11-22T22:18:09.854Z,83.00
2022-11-22T22:21:52.554Z,83.06
2022-11-22T22:25:35.194Z,83.03
2022-11-22T22:29:17.862Z,82.92
2022-11-22T22:33:01.857Z,83.05
2022-11-22T22:36:44.506Z,82.32
2022-11-22T22:40:27.146Z,83.13
2022-11-22T22:44:10.048Z,82.87
2022-11-22T22:47:52.791Z,83.07
2022-11-22T22:51:36.848Z,82.74
2022-11-22T22:55:19.783Z,83.45
2022-11-22T22:59:02.444Z,83.28
2022-11-22T23:02:45.214Z,83.23
2022-11-22T23:06:29.462Z,82.95
2022-11-22T23:10:13.432Z,83.14
2022-11-22T23:13:56.071Z,83.62
2022-11-22T23:17:38.925Z,82.93
2022-11-22T23:21:21.546Z,83.24
2022-11-22T23:25:05.148Z,83.41
2022-11-22T23:28:50.729Z,83.50
2022-11-22T23:32:33.404Z,84.07
2022-11-22T23:36:17.759Z,84.22
2022-11-22T23:40:00.409Z,84.05
2022-11-22T23:43:43.919Z,83.85
2022-11-22T23:47:27.970Z,83.69
2022-11-22T23:51:10.842Z,83.40
2022-11-22T23:54:53.499Z,84.02
2022-11-22T23:58:36.747Z,83.62
